sensor_id;sensor_type;location;lat;lon;timestamp;P1;durP1;ratioP1;P2;durP2;ratioP2
11100;SDS011;5604;50.722;7.078;2022-11-21T00:01:28;12.77;;;4.10;;
11100;SDS011;5604;50.722;7.078;2022-11-21T00:03:56;15.87;;;3.93;;
11100;SDS011;5604;50.722;7.078;2022-11-21T00:06:24;10.50;;;3.23;;
11100;SDS011;5604;50.722;7.078;2022-11-21T00:08:54;12.73;;;3.50;;
11100;SDS011;5604;50.722;7.078;2022-11-21T00:11:22;12.43;;;3.60;;
11100;SDS011;5604;50.722;7.078;2022-11-21T00:13:50;11.17;;;3.87;;
11100;SDS011;5604;50.722;7.078;2022-11-21T00:16:22;10.93;;;3.30;;
11100;SDS011;5604;50.722;7.078;2022-11-21T00:18:50;15.47;;;3.87;;
11100;SDS011;5604;50.722;7.078;2022-11-21T00:21:19;14.23;;;3.80;;
11100;SDS011;5604;50.722;7.078;2022-11-21T00:23:47;15.03;;;3.70;;
11100;SDS011;5604;50.722;7.078;2022-11-21T00:26:15;14.27;;;3.70;;
11100;SDS011;5604;50.722;7.078;2022-11-21T00:28:44;12.23;;;3.73;;
11100;SDS011;5604;50.722;7.078;2022-11-21T00:31:19;11.70;;;3.47;;
11100;SDS011;5604;50.722;7.078;2022-11-21T00:33:49;9.93;;;3.93;;
11100;SDS011;5604;50.722;7.078;2022-11-21T00:36:17;14.13;;;3.77;;
11100;SDS011;5604;50.722;7.078;2022-11-21T00:38:46;12.80;;;3.43;;
11100;SDS011;5604;50.722;7.078;2022-11-21T00:41:15;13.73;;;3.60;;
11100;SDS011;5604;50.722;7.078;2022-11-21T00:43:43;13.50;;;3.63;;
11100;SDS011;5604;50.722;7.078;2022-11-21T00:46:12;12.83;;;3.93;;
11100;SDS011;5604;50.722;7.078;2022-11-21T00:48:45;15.17;;;4.90;;
11100;SDS011;5604;50.722;7.078;2022-11-21T00:51:14;13.80;;;4.07;;
11100;SDS011;5604;50.722;7.078;2022-11-21T00:53:42;11.10;;;3.63;;
11100;SDS011;5604;50.722;7.078;2022-11-21T00:56:10;10.03;;;3.67;;
11100;SDS011;5604;50.722;7.078;2022-11-21T00:58:39;9.80;;;3.37;;
11100;SDS011;5604;50.722;7.078;2022-11-21T01:01:08;17.23;;;4.17;;
11100;SDS011;5604;50.722;7.078;2022-11-21T01:03:37;14.50;;;3.70;;
11100;SDS011;5604;50.722;7.078;2022-11-21T01:06:07;15.73;;;4.43;;
11100;SDS011;5604;50.722;7.078;2022-11-21T01:08:42;12.00;;;3.90;;
11100;SDS011;5604;50.722;7.078;2022-11-21T01:11:12;10.50;;;3.40;;
11100;SDS011;5604;50.722;7.078;2022-11-21T01:13:41;11.23;;;3.60;;
11100;SDS011;5604;50.722;7.078;2022-11-21T01:16:13;11.37;;;3.60;;
11100;SDS011;5604;50.722;7.078;2022-11-21T01:18:43;14.70;;;4.67;;
11100;SDS011;5604;50.722;7.078;2022-11-21T01:21:13;9.63;;;3.70;;
11100;SDS011;5604;50.722;7.078;2022-11-21T01:23:42;8.57;;;3.33;;
11100;SDS011;5604;50.722;7.078;2022-11-21T01:26:12;13.30;;;4.00;;
11100;SDS011;5604;50.722;7.078;2022-11-21T01:28:41;13.77;;;4.20;;
11100;SDS011;5604;50.722;7.078;2022-11-21T01:31:10;9.33;;;3.97;;
11100;SDS011;5604;50.722;7.078;2022-11-21T01:33:40;16.40;;;3.90;;
11100;SDS011;5604;50.722;7.078;2022-11-21T01:36:09;11.50;;;4.00;;
11100;SDS011;5604;50.722;7.078;2022-11-21T01:38:41;9.30;;;3.73;;
11100;SDS011;5604;50.722;7.078;2022-11-21T01:41:11;13.47;;;4.23;;
11100;SDS011;5604;50.722;7.078;2022-11-21T01:43:41;16.70;;;4.43;;
11100;SDS011;5604;50.722;7.078;2022-11-21T01:46:10;10.27;;;4.10;;
11100;SDS011;5604;50.722;7.078;2022-11-21T01:48:40;16.90;;;4.20;;
11100;SDS011;5604;50.722;7.078;2022-11-21T01:51:12;12.03;;;3.93;;
11100;SDS011;5604;50.722;7.078;2022-11-21T01:53:45;9.67;;;3.80;;
11100;SDS011;5604;50.722;7.078;2022-11-21T01:56:18;13.03;;;4.30;;
11100;SDS011;5604;50.722;7.078;2022-11-21T01:58:47;10.43;;;4.23;;
11100;SDS011;5604;50.722;7.078;2022-11-21T02:01:16;10.70;;;4.80;;
11100;SDS011;5604;50.722;7.078;2022-11-21T02:03:45;12.83;;;3.90;;
11100;SDS011;5604;50.722;7.078;2022-11-21T02:06:14;11.70;;;4.37;;
11100;SDS011;5604;50.722;7.078;2022-11-21T02:08:42;11.67;;;3.90;;
11100;SDS011;5604;50.722;7.078;2022-11-21T02:11:15;12.90;;;4.50;;
11100;SDS011;5604;50.722;7.078;2022-11-21T02:13:48;10.83;;;4.33;;
11100;SDS011;5604;50.722;7.078;2022-11-21T02:16:16;13.27;;;3.83;;
11100;SDS011;5604;50.722;7.078;2022-11-21T02:18:44;11.63;;;3.80;;
11100;SDS011;5604;50.722;7.078;2022-11-21T02:21:16;14.93;;;3.47;;
11100;SDS011;5604;50.722;7.078;2022-11-21T02:23:53;8.00;;;3.43;;
11100;SDS011;5604;50.722;7.078;2022-11-21T02:26:27;11.33;;;3.40;;
11100;SDS011;5604;50.722;7.078;2022-11-21T02:28:56;6.60;;;2.83;;
11100;SDS011;5604;50.722;7.078;2022-11-21T02:31:25;10.27;;;3.60;;
11100;SDS011;5604;50.722;7.078;2022-11-21T02:33:53;11.23;;;3.60;;
11100;SDS011;5604;50.722;7.078;2022-11-21T02:36:33;8.80;;;3.17;;
11100;SDS011;5604;50.722;7.078;2022-11-21T02:39:04;8.63;;;3.10;;
11100;SDS011;5604;50.722;7.078;2022-11-21T02:41:36;9.87;;;3.80;;
11100;SDS011;5604;50.722;7.078;2022-11-21T02:44:05;14.93;;;3.73;;
11100;SDS011;5604;50.722;7.078;2022-11-21T02:46:36;7.70;;;3.00;;
11100;SDS011;5604;50.722;7.078;2022-11-21T02:49:14;9.70;;;3.03;;
11100;SDS011;5604;50.722;7.078;2022-11-21T02:51:48;8.50;;;3.40;;
11100;SDS011;5604;50.722;7.078;2022-11-21T02:54:17;10.70;;;3.43;;
11100;SDS011;5604;50.722;7.078;2022-11-21T02:56:46;10.10;;;3.03;;
11100;SDS011;5604;50.722;7.078;2022-11-21T02:59:15;10.87;;;2.90;;
11100;SDS011;5604;50.722;7.078;2022-11-21T03:01:43;7.17;;;2.77;;
11100;SDS011;5604;50.722;7.078;2022-11-21T03:04:11;8.03;;;2.70;;
11100;SDS011;5604;50.722;7.078;2022-11-21T03:06:40;5.90;;;3.10;;
11100;SDS011;5604;50.722;7.078;2022-11-21T03:09:08;9.40;;;2.80;;
11100;SDS011;5604;50.722;7.078;2022-11-21T03:11:38;7.17;;;2.93;;
11100;SDS011;5604;50.722;7.078;2022-11-21T03:14:08;10.87;;;2.93;;
11100;SDS011;5604;50.722;7.078;2022-11-21T03:16:36;8.13;;;3.33;;
11100;SDS011;5604;50.722;7.078;2022-11-21T03:19:04;6.57;;;3.03;;
11100;SDS011;5604;50.722;7.078;2022-11-21T03:21:33;7.97;;;3.20;;
11100;SDS011;5604;50.722;7.078;2022-11-21T03:24:01;10.30;;;2.73;;
11100;SDS011;5604;50.722;7.078;2022-11-21T03:26:29;11.70;;;2.93;;
11100;SDS011;5604;50.722;7.078;2022-11-21T03:28:57;8.60;;;3.23;;
11100;SDS011;5604;50.722;7.078;2022-11-21T03:31:27;7.80;;;2.70;;
11100;SDS011;5604;50.722;7.078;2022-11-21T03:33:55;8.97;;;3.10;;
11100;SDS011;5604;50.722;7.078;2022-11-21T03:36:23;7.47;;;2.57;;
11100;SDS011;5604;50.722;7.078;2022-11-21T03:38:53;9.87;;;3.17;;
11100;SDS011;5604;50.722;7.078;2022-11-21T03:41:21;7.90;;;3.13;;
11100;SDS011;5604;50.722;7.078;2022-11-21T03:44:00;6.57;;;2.53;;
11100;SDS011;5604;50.722;7.078;2022-11-21T03:46:31;5.93;;;3.17;;
11100;SDS011;5604;50.722;7.078;2022-11-21T03:49:00;5.37;;;2.57;;
11100;SDS011;5604;50.722;7.078;2022-11-21T03:51:29;8.43;;;3.30;;
11100;SDS011;5604;50.722;7.078;2022-11-21T03:53:57;10.30;;;3.13;;
11100;SDS011;5604;50.722;7.078;2022-11-21T03:56:26;8.70;;;2.93;;
11100;SDS011;5604;50.722;7.078;2022-11-21T03:58:54;6.60;;;2.70;;
11100;SDS011;5604;50.722;7.078;2022-11-21T04:01:22;8.43;;;2.77;;
11100;SDS011;5604;50.722;7.078;2022-11-21T04:03:52;6.50;;;2.77;;
11100;SDS011;5604;50.722;7.078;2022-11-21T04:06:21;6.73;;;2.83;;
11100;SDS011;5604;50.722;7.078;2022-11-21T04:08:49;6.87;;;2.97;;
11100;SDS011;5604;50.722;7.078;2022-11-21T04:11:18;6.13;;;2.70;;
11100;SDS011;5604;50.722;7.078;2022-11-21T04:13:49;6.17;;;2.77;;
11100;SDS011;5604;50.722;7.078;2022-11-21T04:16:17;7.83;;;3.00;;
11100;SDS011;5604;50.722;7.078;2022-11-21T04:18:45;7.97;;;3.70;;
11100;SDS011;5604;50.722;7.078;2022-11-21T04:21:15;11.73;;;3.40;;
11100;SDS011;5604;50.722;7.078;2022-11-21T04:23:43;7.87;;;3.13;;
11100;SDS011;5604;50.722;7.078;2022-11-21T04:26:11;7.83;;;2.70;;
11100;SDS011;5604;50.722;7.078;2022-11-21T04:28:39;8.50;;;2.47;;
11100;SDS011;5604;50.722;7.078;2022-11-21T04:31:08;9.70;;;2.93;;
11100;SDS011;5604;50.722;7.078;2022-11-21T04:33:37;7.03;;;2.80;;
11100;SDS011;5604;50.722;7.078;2022-11-21T04:36:05;9.47;;;2.93;;
11100;SDS011;5604;50.722;7.078;2022-11-21T04:38:35;7.27;;;3.33;;
11100;SDS011;5604;50.722;7.078;2022-11-21T04:41:03;4.53;;;2.73;;
11100;SDS011;5604;50.722;7.078;2022-11-21T04:43:32;8.60;;;3.33;;
11100;SDS011;5604;50.722;7.078;2022-11-21T04:46:00;7.93;;;3.27;;
11100;SDS011;5604;50.722;7.078;2022-11-21T04:48:28;5.70;;;3.23;;
11100;SDS011;5604;50.722;7.078;2022-11-21T04:50:58;4.17;;;2.90;;
11100;SDS011;5604;50.722;7.078;2022-11-21T04:53:26;13.00;;;3.30;;
11100;SDS011;5604;50.722;7.078;2022-11-21T04:55:56;5.40;;;2.90;;
11100;SDS011;5604;50.722;7.078;2022-11-21T04:58:25;9.73;;;4.10;;
11100;SDS011;5604;50.722;7.078;2022-11-21T05:00:53;8.87;;;3.20;;
11100;SDS011;5604;50.722;7.078;2022-11-21T05:03:22;7.90;;;3.50;;
11100;SDS011;5604;50.722;7.078;2022-11-21T05:05:50;8.70;;;3.27;;
11100;SDS011;5604;50.722;7.078;2022-11-21T05:08:18;6.07;;;3.13;;
11100;SDS011;5604;50.722;7.078;2022-11-21T05:10:47;9.67;;;3.63;;
11100;SDS011;5604;50.722;7.078;2022-11-21T05:13:33;6.33;;;3.63;;
11100;SDS011;5604;50.722;7.078;2022-11-21T05:16:02;9.43;;;3.40;;
11100;SDS011;5604;50.722;7.078;2022-11-21T05:18:30;8.63;;;3.27;;
11100;SDS011;5604;50.722;7.078;2022-11-21T05:20:59;9.27;;;3.43;;
11100;SDS011;5604;50.722;7.078;2022-11-21T05:23:28;6.90;;;3.20;;
11100;SDS011;5604;50.722;7.078;2022-11-21T05:25:56;8.50;;;3.67;;
11100;SDS011;5604;50.722;7.078;2022-11-21T05:28:24;6.73;;;3.80;;
11100;SDS011;5604;50.722;7.078;2022-11-21T05:30:54;7.87;;;4.17;;
11100;SDS011;5604;50.722;7.078;2022-11-21T05:33:22;6.83;;;3.80;;
11100;SDS011;5604;50.722;7.078;2022-11-21T05:35:50;7.83;;;4.03;;
11100;SDS011;5604;50.722;7.078;2022-11-21T05:38:18;7.87;;;4.00;;
11100;SDS011;5604;50.722;7.078;2022-11-21T05:40:46;10.93;;;4.20;;
11100;SDS011;5604;50.722;7.078;2022-11-21T05:43:15;8.50;;;3.83;;
11100;SDS011;5604;50.722;7.078;2022-11-21T05:46:01;7.87;;;4.20;;
11100;SDS011;5604;50.722;7.078;2022-11-21T05:48:31;7.97;;;4.00;;
11100;SDS011;5604;50.722;7.078;2022-11-21T05:50:59;8.40;;;4.47;;
11100;SDS011;5604;50.722;7.078;2022-11-21T05:53:28;11.13;;;4.67;;
11100;SDS011;5604;50.722;7.078;2022-11-21T05:55:59;9.20;;;4.40;;
11100;SDS011;5604;50.722;7.078;2022-11-21T05:58:28;10.13;;;4.90;;
11100;SDS011;5604;50.722;7.078;2022-11-21T06:00:57;12.17;;;4.10;;
11100;SDS011;5604;50.722;7.078;2022-11-21T06:03:28;10.87;;;4.80;;
11100;SDS011;5604;50.722;7.078;2022-11-21T06:05:57;8.87;;;4.40;;
11100;SDS011;5604;50.722;7.078;2022-11-21T06:08:30;9.30;;;4.20;;
11100;SDS011;5604;50.722;7.078;2022-11-21T06:11:00;7.27;;;4.20;;
11100;SDS011;5604;50.722;7.078;2022-11-21T06:13:28;7.33;;;4.07;;
11100;SDS011;5604;50.722;7.078;2022-11-21T06:15:58;7.03;;;4.60;;
11100;SDS011;5604;50.722;7.078;2022-11-21T06:18:30;6.60;;;4.57;;
11100;SDS011;5604;50.722;7.078;2022-11-21T06:21:02;6.03;;;4.50;;
11100;SDS011;5604;50.722;7.078;2022-11-21T06:23:31;8.47;;;4.53;;
11100;SDS011;5604;50.722;7.078;2022-11-21T06:26:01;6.97;;;4.50;;
11100;SDS011;5604;50.722;7.078;2022-11-21T06:28:30;7.90;;;4.03;;
11100;SDS011;5604;50.722;7.078;2022-11-21T06:31:03;5.87;;;4.03;;
11100;SDS011;5604;50.722;7.078;2022-11-21T06:33:33;7.90;;;4.67;;
11100;SDS011;5604;50.722;7.078;2022-11-21T06:36:02;8.37;;;5.23;;
11100;SDS011;5604;50.722;7.078;2022-11-21T06:38:31;9.83;;;4.83;;
11100;SDS011;5604;50.722;7.078;2022-11-21T06:41:02;6.13;;;4.40;;
11100;SDS011;5604;50.722;7.078;2022-11-21T06:43:31;9.57;;;4.67;;
11100;SDS011;5604;50.722;7.078;2022-11-21T06:45:59;5.77;;;4.17;;
11100;SDS011;5604;50.722;7.078;2022-11-21T06:48:28;8.50;;;4.57;;
11100;SDS011;5604;50.722;7.078;2022-11-21T06:51:02;7.00;;;4.73;;
11100;SDS011;5604;50.722;7.078;2022-11-21T06:53:31;11.00;;;5.13;;
11100;SDS011;5604;50.722;7.078;2022-11-21T06:55:59;8.10;;;5.13;;
11100;SDS011;5604;50.722;7.078;2022-11-21T06:58:27;8.30;;;5.03;;
11100;SDS011;5604;50.722;7.078;2022-11-21T07:00:56;8.33;;;4.60;;
11100;SDS011;5604;50.722;7.078;2022-11-21T07:03:24;6.77;;;4.80;;
11100;SDS011;5604;50.722;7.078;2022-11-21T07:05:52;10.73;;;4.73;;
11100;SDS011;5604;50.722;7.078;2022-11-21T07:08:27;5.60;;;4.27;;
11100;SDS011;5604;50.722;7.078;2022-11-21T07:10:56;5.47;;;4.83;;
11100;SDS011;5604;50.722;7.078;2022-11-21T07:13:47;6.53;;;4.77;;
11100;SDS011;5604;50.722;7.078;2022-11-21T07:16:15;8.77;;;5.47;;
11100;SDS011;5604;50.722;7.078;2022-11-21T07:18:44;12.07;;;4.97;;
11100;SDS011;5604;50.722;7.078;2022-11-21T07:21:13;6.27;;;5.00;;
11100;SDS011;5604;50.722;7.078;2022-11-21T07:23:42;7.60;;;5.20;;
11100;SDS011;5604;50.722;7.078;2022-11-21T07:26:10;8.13;;;5.50;;
11100;SDS011;5604;50.722;7.078;2022-11-21T07:28:38;8.97;;;5.70;;
11100;SDS011;5604;50.722;7.078;2022-11-21T07:31:07;9.27;;;6.17;;
11100;SDS011;5604;50.722;7.078;2022-11-21T07:33:39;8.47;;;5.23;;
11100;SDS011;5604;50.722;7.078;2022-11-21T07:36:09;8.70;;;5.87;;
11100;SDS011;5604;50.722;7.078;2022-11-21T07:38:40;7.67;;;5.97;;
11100;SDS011;5604;50.722;7.078;2022-11-21T07:41:27;8.93;;;6.43;;
11100;SDS011;5604;50.722;7.078;2022-11-21T07:44:10;8.10;;;6.57;;
11100;SDS011;5604;50.722;7.078;2022-11-21T07:46:47;9.00;;;6.90;;
11100;SDS011;5604;50.722;7.078;2022-11-21T07:49:33;13.07;;;8.87;;
11100;SDS011;5604;50.722;7.078;2022-11-21T07:52:08;11.63;;;8.03;;
11100;SDS011;5604;50.722;7.078;2022-11-21T07:54:38;8.00;;;6.90;;
11100;SDS011;5604;50.722;7.078;2022-11-21T07:57:08;8.20;;;7.07;;
11100;SDS011;5604;50.722;7.078;2022-11-21T07:59:36;8.00;;;6.00;;
11100;SDS011;5604;50.722;7.078;2022-11-21T08:02:05;6.10;;;5.37;;
11100;SDS011;5604;50.722;7.078;2022-11-21T08:04:35;6.83;;;5.03;;
11100;SDS011;5604;50.722;7.078;2022-11-21T08:07:04;10.23;;;5.40;;
11100;SDS011;5604;50.722;7.078;2022-11-21T08:09:33;6.47;;;4.47;;
11100;SDS011;5604;50.722;7.078;2022-11-21T08:12:05;7.10;;;3.90;;
11100;SDS011;5604;50.722;7.078;2022-11-21T08:14:35;10.87;;;4.80;;
11100;SDS011;5604;50.722;7.078;2022-11-21T08:17:03;7.63;;;4.60;;
11100;SDS011;5604;50.722;7.078;2022-11-21T08:19:32;9.93;;;4.87;;
11100;SDS011;5604;50.722;7.078;2022-11-21T08:22:01;5.43;;;3.70;;
11100;SDS011;5604;50.722;7.078;2022-11-21T08:24:29;5.27;;;4.07;;
11100;SDS011;5604;50.722;7.078;2022-11-21T08:26:57;5.87;;;3.93;;
11100;SDS011;5604;50.722;7.078;2022-11-21T08:29:26;7.17;;;3.57;;
11100;SDS011;5604;50.722;7.078;2022-11-21T08:31:56;5.60;;;3.50;;
11100;SDS011;5604;50.722;7.078;2022-11-21T08:34:24;6.10;;;3.73;;
11100;SDS011;5604;50.722;7.078;2022-11-21T08:36:52;4.17;;;3.47;;
11100;SDS011;5604;50.722;7.078;2022-11-21T08:39:20;5.37;;;3.30;;
11100;SDS011;5604;50.722;7.078;2022-11-21T08:41:48;6.37;;;3.40;;
11100;SDS011;5604;50.722;7.078;2022-11-21T08:44:32;4.07;;;3.07;;
11100;SDS011;5604;50.722;7.078;2022-11-21T08:47:02;5.70;;;3.30;;
11100;SDS011;5604;50.722;7.078;2022-11-21T08:49:32;3.40;;;2.80;;
11100;SDS011;5604;50.722;7.078;2022-11-21T08:52:00;5.40;;;2.70;;
11100;SDS011;5604;50.722;7.078;2022-11-21T08:54:29;3.87;;;2.83;;
11100;SDS011;5604;50.722;7.078;2022-11-21T08:56:57;4.33;;;2.63;;
11100;SDS011;5604;50.722;7.078;2022-11-21T08:59:25;5.47;;;2.80;;
11100;SDS011;5604;50.722;7.078;2022-11-21T09:01:53;3.00;;;2.80;;
11100;SDS011;5604;50.722;7.078;2022-11-21T09:04:23;5.43;;;2.83;;
11100;SDS011;5604;50.722;7.078;2022-11-21T09:06:51;3.93;;;2.60;;
11100;SDS011;5604;50.722;7.078;2022-11-21T09:09:19;4.50;;;2.50;;
11100;SDS011;5604;50.722;7.078;2022-11-21T09:11:51;3.00;;;2.20;;
11100;SDS011;5604;50.722;7.078;2022-11-21T09:14:19;2.40;;;2.20;;
11100;SDS011;5604;50.722;7.078;2022-11-21T09:17:05;4.53;;;2.30;;
11100;SDS011;5604;50.722;7.078;2022-11-21T09:19:52;5.23;;;2.40;;
11100;SDS011;5604;50.722;7.078;2022-11-21T09:22:20;2.60;;;1.90;;
11100;SDS011;5604;50.722;7.078;2022-11-21T09:24:48;1.83;;;1.60;;
11100;SDS011;5604;50.722;7.078;2022-11-21T09:27:16;4.10;;;1.57;;
11100;SDS011;5604;50.722;7.078;2022-11-21T09:29:45;2.53;;;1.60;;
11100;SDS011;5604;50.722;7.078;2022-11-21T09:32:19;2.43;;;1.50;;
11100;SDS011;5604;50.722;7.078;2022-11-21T09:34:48;2.83;;;1.93;;
11100;SDS011;5604;50.722;7.078;2022-11-21T09:37:17;2.10;;;1.43;;
11100;SDS011;5604;50.722;7.078;2022-11-21T09:39:46;1.60;;;1.30;;
11100;SDS011;5604;50.722;7.078;2022-11-21T09:42:24;1.40;;;1.30;;
11100;SDS011;5604;50.722;7.078;2022-11-21T09:45:02;2.37;;;1.50;;
11100;SDS011;5604;50.722;7.078;2022-11-21T09:47:34;1.53;;;1.43;;
11100;SDS011;5604;50.722;7.078;2022-11-21T09:50:04;1.50;;;1.30;;
11100;SDS011;5604;50.722;7.078;2022-11-21T09:52:37;1.80;;;1.40;;
11100;SDS011;5604;50.722;7.078;2022-11-21T09:55:15;1.47;;;1.37;;
11100;SDS011;5604;50.722;7.078;2022-11-21T09:57:48;1.30;;;1.20;;
11100;SDS011;5604;50.722;7.078;2022-11-21T10:00:18;3.50;;;1.60;;
11100;SDS011;5604;50.722;7.078;2022-11-21T10:02:48;1.70;;;1.30;;
11100;SDS011;5604;50.722;7.078;2022-11-21T10:05:19;1.97;;;1.30;;
11100;SDS011;5604;50.722;7.078;2022-11-21T10:07:53;1.93;;;1.17;;
11100;SDS011;5604;50.722;7.078;2022-11-21T10:10:28;1.90;;;1.60;;
11100;SDS011;5604;50.722;7.078;2022-11-21T10:13:12;3.03;;;1.30;;
11100;SDS011;5604;50.722;7.078;2022-11-21T10:15:49;2.93;;;1.10;;
11100;SDS011;5604;50.722;7.078;2022-11-21T10:18:28;1.60;;;1.23;;
11100;SDS011;5604;50.722;7.078;2022-11-21T10:21:05;1.40;;;1.07;;
11100;SDS011;5604;50.722;7.078;2022-11-21T10:23:46;1.50;;;1.30;;
11100;SDS011;5604;50.722;7.078;2022-11-21T10:26:22;3.97;;;1.20;;
11100;SDS011;5604;50.722;7.078;2022-11-21T10:29:01;3.23;;;1.50;;
11100;SDS011;5604;50.722;7.078;2022-11-21T10:31:35;1.30;;;1.20;;
11100;SDS011;5604;50.722;7.078;2022-11-21T10:34:07;3.30;;;1.40;;
11100;SDS011;5604;50.722;7.078;2022-11-21T10:36:38;2.97;;;1.53;;
11100;SDS011;5604;50.722;7.078;2022-11-21T10:39:13;2.43;;;1.00;;
11100;SDS011;5604;50.722;7.078;2022-11-21T10:41:47;1.73;;;1.23;;
11100;SDS011;5604;50.722;7.078;2022-11-21T10:44:22;1.40;;;1.30;;
11100;SDS011;5604;50.722;7.078;2022-11-21T10:47:15;2.27;;;1.37;;
11100;SDS011;5604;50.722;7.078;2022-11-21T10:50:00;2.77;;;1.33;;
11100;SDS011;5604;50.722;7.078;2022-11-21T10:52:33;2.63;;;1.50;;
11100;SDS011;5604;50.722;7.078;2022-11-21T10:55:06;3.53;;;1.30;;
11100;SDS011;5604;50.722;7.078;2022-11-21T10:57:38;1.30;;;1.00;;
11100;SDS011;5604;50.722;7.078;2022-11-21T11:00:19;3.37;;;1.00;;
11100;SDS011;5604;50.722;7.078;2022-11-21T11:05:52;4.97;;;1.40;;
11100;SDS011;5604;50.722;7.078;2022-11-21T11:08:22;1.80;;;1.13;;
11100;SDS011;5604;50.722;7.078;2022-11-21T11:11:01;1.50;;;1.00;;
11100;SDS011;5604;50.722;7.078;2022-11-21T11:13:49;1.27;;;0.97;;
11100;SDS011;5604;50.722;7.078;2022-11-21T11:16:22;1.43;;;1.00;;
11100;SDS011;5604;50.722;7.078;2022-11-21T11:19:15;2.73;;;0.97;;
11100;SDS011;5604;50.722;7.078;2022-11-21T11:21:55;4.27;;;1.30;;
11100;SDS011;5604;50.722;7.078;2022-11-21T11:24:28;1.57;;;0.90;;
11100;SDS011;5604;50.722;7.078;2022-11-21T11:26:59;4.47;;;1.20;;
11100;SDS011;5604;50.722;7.078;2022-11-21T11:29:29;1.00;;;0.90;;
11100;SDS011;5604;50.722;7.078;2022-11-21T11:32:01;2.47;;;1.17;;
11100;SDS011;5604;50.722;7.078;2022-11-21T11:34:36;2.70;;;1.33;;
11100;SDS011;5604;50.722;7.078;2022-11-21T11:37:10;2.07;;;1.10;;
11100;SDS011;5604;50.722;7.078;2022-11-21T11:39:44;3.77;;;1.67;;
11100;SDS011;5604;50.722;7.078;2022-11-21T11:42:31;2.00;;;1.13;;
11100;SDS011;5604;50.722;7.078;2022-11-21T11:45:35;2.70;;;1.40;;
11100;SDS011;5604;50.722;7.078;2022-11-21T11:48:31;3.03;;;1.70;;
11100;SDS011;5604;50.722;7.078;2022-11-21T11:51:23;3.70;;;1.50;;
11100;SDS011;5604;50.722;7.078;2022-11-21T11:53:54;2.90;;;2.23;;
11100;SDS011;5604;50.722;7.078;2022-11-21T11:56:28;4.03;;;1.70;;
11100;SDS011;5604;50.722;7.078;2022-11-21T11:59:00;3.40;;;1.40;;
11100;SDS011;5604;50.722;7.078;2022-11-21T12:01:32;2.93;;;1.27;;
11100;SDS011;5604;50.722;7.078;2022-11-21T12:04:05;3.47;;;1.40;;
11100;SDS011;5604;50.722;7.078;2022-11-21T12:06:41;3.13;;;1.40;;
11100;SDS011;5604;50.722;7.078;2022-11-21T12:09:34;4.23;;;1.70;;
11100;SDS011;5604;50.722;7.078;2022-11-21T12:12:08;4.77;;;1.87;;
11100;SDS011;5604;50.722;7.078;2022-11-21T12:14:44;4.00;;;1.83;;
11100;SDS011;5604;50.722;7.078;2022-11-21T12:17:35;3.63;;;1.40;;
11100;SDS011;5604;50.722;7.078;2022-11-21T12:20:11;3.67;;;1.70;;
11100;SDS011;5604;50.722;7.078;2022-11-21T12:22:41;3.37;;;1.40;;
11100;SDS011;5604;50.722;7.078;2022-11-21T12:25:10;2.63;;;1.57;;
11100;SDS011;5604;50.722;7.078;2022-11-21T12:27:39;4.37;;;1.20;;
11100;SDS011;5604;50.722;7.078;2022-11-21T12:30:27;3.27;;;1.33;;
11100;SDS011;5604;50.722;7.078;2022-11-21T12:33:11;2.90;;;1.13;;
11100;SDS011;5604;50.722;7.078;2022-11-21T12:38:53;2.63;;;1.50;;
11100;SDS011;5604;50.722;7.078;2022-11-21T12:41:36;4.77;;;1.70;;
11100;SDS011;5604;50.722;7.078;2022-11-21T12:44:34;5.13;;;1.77;;
11100;SDS011;5604;50.722;7.078;2022-11-21T12:47:16;3.47;;;1.83;;
11100;SDS011;5604;50.722;7.078;2022-11-21T12:49:53;5.60;;;1.57;;
11100;SDS011;5604;50.722;7.078;2022-11-21T12:52:45;3.23;;;1.40;;
11100;SDS011;5604;50.722;7.078;2022-11-21T12:55:37;3.30;;;1.43;;
11100;SDS011;5604;50.722;7.078;2022-11-21T12:58:19;2.43;;;1.40;;
11100;SDS011;5604;50.722;7.078;2022-11-21T13:00:56;4.53;;;1.17;;
11100;SDS011;5604;50.722;7.078;2022-11-21T13:03:40;1.90;;;1.53;;
11100;SDS011;5604;50.722;7.078;2022-11-21T13:06:13;3.67;;;1.40;;
11100;SDS011;5604;50.722;7.078;2022-11-21T13:08:44;4.70;;;1.90;;
11100;SDS011;5604;50.722;7.078;2022-11-21T13:11:17;4.43;;;1.30;;
11100;SDS011;5604;50.722;7.078;2022-11-21T13:14:08;6.03;;;1.63;;
11100;SDS011;5604;50.722;7.078;2022-11-21T13:16:43;4.13;;;1.23;;
11100;SDS011;5604;50.722;7.078;2022-11-21T13:19:17;2.60;;;1.30;;
11100;SDS011;5604;50.722;7.078;2022-11-21T13:21:50;4.60;;;1.43;;
11100;SDS011;5604;50.722;7.078;2022-11-21T13:27:25;4.87;;;1.60;;
11100;SDS011;5604;50.722;7.078;2022-11-21T13:32:50;2.73;;;1.43;;
11100;SDS011;5604;50.722;7.078;2022-11-21T13:38:31;5.07;;;1.70;;
11100;SDS011;5604;50.722;7.078;2022-11-21T13:41:57;4.40;;;1.70;;
11100;SDS011;5604;50.722;7.078;2022-11-21T13:44:49;4.50;;;1.67;;
11100;SDS011;5604;50.722;7.078;2022-11-21T13:47:40;8.27;;;1.60;;
11100;SDS011;5604;50.722;7.078;2022-11-21T13:50:38;3.93;;;1.70;;
11100;SDS011;5604;50.722;7.078;2022-11-21T13:53:18;2.80;;;1.60;;
11100;SDS011;5604;50.722;7.078;2022-11-21T13:55:58;2.73;;;1.70;;
11100;SDS011;5604;50.722;7.078;2022-11-21T13:58:34;4.33;;;1.40;;
11100;SDS011;5604;50.722;7.078;2022-11-21T14:07:15;5.20;;;1.80;;
11100;SDS011;5604;50.722;7.078;2022-11-21T14:09:50;4.97;;;1.97;;
11100;SDS011;5604;50.722;7.078;2022-11-21T14:12:21;4.27;;;2.00;;
11100;SDS011;5604;50.722;7.078;2022-11-21T14:15:17;5.13;;;1.80;;
11100;SDS011;5604;50.722;7.078;2022-11-21T14:17:49;2.90;;;1.73;;
11100;SDS011;5604;50.722;7.078;2022-11-21T14:20:19;4.97;;;1.87;;
11100;SDS011;5604;50.722;7.078;2022-11-21T14:22:53;4.93;;;2.10;;
11100;SDS011;5604;50.722;7.078;2022-11-21T14:25:24;4.97;;;1.90;;
11100;SDS011;5604;50.722;7.078;2022-11-21T14:27:58;4.93;;;1.60;;
11100;SDS011;5604;50.722;7.078;2022-11-21T14:30:30;4.30;;;1.97;;
11100;SDS011;5604;50.722;7.078;2022-11-21T14:35:48;4.97;;;2.00;;
11100;SDS011;5604;50.722;7.078;2022-11-21T14:38:16;4.43;;;1.90;;
11100;SDS011;5604;50.722;7.078;2022-11-21T14:40:46;4.10;;;2.17;;
11100;SDS011;5604;50.722;7.078;2022-11-21T14:46:11;3.17;;;1.63;;
11100;SDS011;5604;50.722;7.078;2022-11-21T14:48:41;3.27;;;1.87;;
11100;SDS011;5604;50.722;7.078;2022-11-21T14:51:13;5.27;;;1.90;;
11100;SDS011;5604;50.722;7.078;2022-11-21T14:53:43;3.50;;;1.83;;
11100;SDS011;5604;50.722;7.078;2022-11-21T14:56:18;4.87;;;1.80;;
11100;SDS011;5604;50.722;7.078;2022-11-21T14:58:48;4.37;;;1.70;;
11100;SDS011;5604;50.722;7.078;2022-11-21T15:01:18;4.37;;;2.53;;
11100;SDS011;5604;50.722;7.078;2022-11-21T15:03:54;5.47;;;2.47;;
11100;SDS011;5604;50.722;7.078;2022-11-21T15:06:23;6.80;;;1.97;;
11100;SDS011;5604;50.722;7.078;2022-11-21T15:08:55;3.97;;;2.13;;
11100;SDS011;5604;50.722;7.078;2022-11-21T15:11:56;10.83;;;2.33;;
11100;SDS011;5604;50.722;7.078;2022-11-21T15:14:58;3.83;;;1.90;;
11100;SDS011;5604;50.722;7.078;2022-11-21T15:17:30;3.70;;;1.77;;
11100;SDS011;5604;50.722;7.078;2022-11-21T15:20:17;6.20;;;2.77;;
11100;SDS011;5604;50.722;7.078;2022-11-21T15:22:46;4.67;;;1.93;;
11100;SDS011;5604;50.722;7.078;2022-11-21T15:25:16;6.20;;;2.20;;
11100;SDS011;5604;50.722;7.078;2022-11-21T15:27:46;6.57;;;2.20;;
11100;SDS011;5604;50.722;7.078;2022-11-21T15:30:21;6.03;;;2.23;;
11100;SDS011;5604;50.722;7.078;2022-11-21T15:32:58;6.57;;;2.83;;
11100;SDS011;5604;50.722;7.078;2022-11-21T15:35:28;6.47;;;2.60;;
11100;SDS011;5604;50.722;7.078;2022-11-21T15:38:12;7.13;;;2.60;;
11100;SDS011;5604;50.722;7.078;2022-11-21T15:40:55;6.80;;;2.63;;
11100;SDS011;5604;50.722;7.078;2022-11-21T15:43:38;6.57;;;2.70;;
11100;SDS011;5604;50.722;7.078;2022-11-21T15:46:14;4.77;;;2.20;;
11100;SDS011;5604;50.722;7.078;2022-11-21T15:48:48;7.00;;;2.40;;
11100;SDS011;5604;50.722;7.078;2022-11-21T15:51:17;7.67;;;2.77;;
11100;SDS011;5604;50.722;7.078;2022-11-21T15:54:06;7.40;;;2.50;;
11100;SDS011;5604;50.722;7.078;2022-11-21T15:56:46;5.50;;;2.73;;
11100;SDS011;5604;50.722;7.078;2022-11-21T15:59:15;7.17;;;2.80;;